Time;durP1;ratioP1;P1;durP2;ratioP2;P2;SDS_P1;SDS_P2;PMS_P1;PMS_P2;Temp;Humidity;BMP_temperature;BMP_pressure;BME280_temperature;BME280_humidity;BME280_pressure;Samples;Min_cycle;Max_cycle;Signal;HPM_P1;HPM_P2
2022/12/29 00:00:04;;;;;;;41.05;25.83;;;;;;;7.17;66.58;95540.00;4175750;28;20049;-76
2022/12/29 00:02:05;;;;;;;;;;;;;;;7.18;66.50;95539.03;4177359;28;20130;-74
2022/12/29 00:04:12;;;;;;;45.63;27.27;;;;;;;7.20;66.14;95536.31;4177540;28;19921;-75
2022/12/29 00:06:16;;;;;;;48.65;28.00;;;;;;;7.24;66.19;95543.78;4175802;28;20103;-73
2022/12/29 00:08:17;;;;;;;48.35;29.42;;;;;;;7.23;66.97;95539.53;4175814;28;20186;-72
2022/12/29 00:10:19;;;;;;;44.17;28.42;;;;;;;7.29;66.36;95546.88;4176468;28;20114;-72
2022/12/29 00:12:21;;;;;;;46.72;29.83;;;;;;;7.29;66.46;95540.81;4176857;28;20300;-73
2022/12/29 00:16:44;;;;;;;50.17;29.15;;;;;;;7.20;66.97;95542.38;4161554;28;20559;-73
2022/12/29 00:18:46;;;;;;;45.90;28.65;;;;;;;7.13;66.99;95542.00;4176999;28;20095;-73
2022/12/29 00:35:12;;;;;;;43.80;27.85;;;;;;;7.19;66.27;95561.56;4136803;28;20574;-73
2022/12/29 00:37:14;;;;;;;45.65;27.60;;;;;;;7.22;66.72;95555.28;4178100;28;20490;-75
2022/12/29 00:44:06;;;;;;;46.53;27.40;;;;;;;7.15;66.44;95566.16;4170096;28;20057;-74
2022/12/29 00:46:08;;;;;;;46.78;28.10;;;;;;;6.90;66.65;95577.59;4172684;28;20446;-72
2022/12/29 00:49:29;;;;;;;43.95;28.52;;;;;;;6.22;69.47;95571.34;4177551;28;20132;-74
2022/12/29 00:50:38;;;;;;;48.35;29.23;;;;;;;5.77;71.18;95570.25;4168240;28;20200;-73
2022/12/29 00:52:39;;;;;;;47.72;30.65;;;;;;;5.49;72.19;95574.75;4173874;28;20052;-73
2022/12/29 00:54:41;;;;;;;54.33;30.60;;;;;;;5.32;72.40;95576.75;4175726;28;20088;-73
2022/12/29 00:56:43;;;;;;;50.80;31.60;;;;;;;5.27;73.44;95573.66;4178739;28;20103;-76
2022/12/29 00:58:45;;;;;;;51.72;30.60;;;;;;;5.14;73.83;95567.59;4178551;28;20051;-73
2022/12/29 01:00:46;;;;;;;50.58;31.85;;;;;;;5.11;73.63;95576.44;4178451;28;20060;-73
2022/12/29 01:02:48;;;;;;;56.95;33.38;;;;;;;4.86;74.78;95563.44;4177879;28;20053;-73
2022/12/29 01:04:50;;;;;;;53.08;32.97;;;;;;;4.85;75.44;95562.63;4177471;28;20132;-73
2022/12/29 01:06:52;;;;;;;55.28;33.13;;;;;;;4.91;75.57;95569.19;4176997;28;20049;-75
2022/12/29 01:11:14;;;;;;;60.80;34.45;;;;;;;4.63;75.95;95563.22;4172163;28;20056;-74
2022/12/29 01:13:18;;;;;;;58.42;35.38;;;;;;;4.65;75.81;95569.16;4168435;28;20152;-74
2022/12/29 01:15:20;;;;;;;56.65;34.97;;;;;;;4.76;75.87;95563.25;4178518;28;20060;-75
2022/12/29 01:17:21;;;;;;;55.38;34.83;;;;;;;4.81;75.13;95555.97;4177821;28;20045;-74
2022/12/29 01:19:24;;;;;;;54.05;33.20;;;;;;;5.07;74.85;95558.56;4178138;28;20064;-75
2022/12/29 01:21:25;;;;;;;50.08;33.80;;;;;;;5.19;74.18;95559.53;4176564;28;20068;-74
2022/12/29 01:23:28;;;;;;;56.70;34.80;;;;;;;5.14;73.90;95559.81;4179288;28;20119;-75
2022/12/29 01:25:30;;;;;;;55.85;32.67;;;;;;;4.88;74.77;95559.84;4142936;28;20068;-74
2022/12/29 01:27:31;;;;;;;54.10;33.78;;;;;;;4.84;74.62;95563.56;4177567;28;20049;-74
2022/12/29 01:29:33;;;;;;;58.67;34.05;;;;;;;4.91;75.55;95554.44;4174959;28;20064;-73
2022/12/29 01:31:35;;;;;;;56.13;33.85;;;;;;;4.87;75.24;95554.75;4161507;28;20460;-74
2022/12/29 01:33:37;;;;;;;54.53;34.25;;;;;;;4.81;75.27;95547.34;4170398;28;20499;-72
2022/12/29 01:35:39;;;;;;;56.30;35.92;;;;;;;5.05;76.00;95542.25;4159380;28;20068;-75
2022/12/29 01:37:41;;;;;;;63.90;36.70;;;;;;;5.29;74.69;95542.34;4167269;28;20408;-76
2022/12/29 01:39:43;;;;;;;54.92;33.15;;;;;;;5.51;73.13;95541.69;4180307;28;20356;-74
2022/12/29 01:41:44;;;;;;;53.17;33.72;;;;;;;5.65;72.83;95530.31;4180684;28;20091;-76
2022/12/29 01:43:51;;;;;;;48.10;31.23;;;;;;;5.66;71.70;95535.41;4168283;28;20112;-77
2022/12/29 01:45:54;;;;;;;43.92;28.42;;;;;;;5.62;72.43;95528.78;4171124;28;20122;-75
2022/12/29 01:47:58;;;;;;;42.08;26.25;;;;;;;5.70;71.82;95528.22;4188744;28;20053;-74
2022/12/29 01:50:13;;;;;;;38.28;24.20;;;;;;;5.71;71.40;95524.69;4156330;28;20489;-75
2022/12/29 01:52:15;;;;;;;35.92;23.27;;;;;;;5.75;71.44;95536.53;4169083;28;20060;-74
2022/12/29 01:54:29;;;;;;;38.85;24.88;;;;;;;5.85;71.00;95524.53;4162788;28;20559;-75
2022/12/29 01:56:31;;;;;;;37.15;23.73;;;;;;;5.90;70.62;95529.41;4162350;28;20133;-75
2022/12/29 01:58:38;;;;;;;38.22;23.40;;;;;;;5.98;70.67;95528.88;4163380;28;20045;-75
2022/12/29 02:00:39;;;;;;;34.55;23.27;;;;;;;6.06;70.46;95529.97;4163585;28;20127;-75
2022/12/29 02:02:52;;;;;;;36.90;23.88;;;;;;;6.17;70.02;95515.38;4186026;28;20045;-74
2022/12/29 02:04:55;;;;;;;33.90;22.92;;;;;;;6.27;69.80;95514.59;4165983;28;20057;-75
2022/12/29 02:07:11;;;;;;;35.20;21.65;;;;;;;6.36;69.21;95515.69;4131935;28;20093;-74
2022/12/29 02:09:13;;;;;;;33.15;22.48;;;;;;;6.47;68.76;95512.28;4154305;28;20539;-74
2022/12/29 02:11:16;;;;;;;33.08;20.95;;;;;;;6.52;68.20;95511.00;4179739;28;20060;-73
2022/12/29 02:13:18;;;;;;;37.85;22.13;;;;;;;6.62;68.18;95510.31;4177353;28;20464;-74
2022/12/29 02:15:51;;;;;;;32.35;21.38;;;;;;;6.63;68.22;95499.78;4161873;28;20106;-75
2022/12/29 02:18:12;;;;;;;34.35;21.38;;;;;;;6.73;67.32;95510.31;4162374;28;20057;-74
2022/12/29 02:20:52;;;;;;;29.30;21.02;;;;;;;6.73;67.56;95508.56;4152119;28;20559;-75
2022/12/29 02:23:31;;;;;;;35.58;21.45;;;;;;;6.70;67.95;95513.19;4179851;28;20083;-73
2022/12/29 02:25:52;;;;;;;34.10;21.08;;;;;;;6.56;67.91;95516.81;4161673;28;20054;-74
2022/12/29 02:28:17;;;;;;;31.58;20.77;;;;;;;6.44;68.16;95513.34;4160784;28;20077;-73
2022/12/29 02:31:02;;;;;;;33.90;20.33;;;;;;;6.17;68.42;95510.16;4179651;28;20059;-75
2022/12/29 02:33:12;;;;;;;29.48;19.35;;;;;;;6.04;68.98;95518.03;4097243;29;20059;-74
2022/12/29 02:35:42;;;;;;;27.42;19.45;;;;;;;6.03;69.25;95519.00;4158521;28;20468;-75
2022/12/29 02:38:10;;;;;;;25.33;17.70;;;;;;;6.06;69.12;95514.38;4166930;28;20102;-74
2022/12/29 02:40:18;;;;;;;25.17;17.42;;;;;;;6.12;69.13;95515.72;4179879;28;20072;-76
2022/12/29 02:42:29;;;;;;;29.23;18.45;;;;;;;6.20;68.28;95520.38;4178347;28;20132;-73
2022/12/29 02:44:36;;;;;;;28.77;17.77;;;;;;;6.25;68.40;95516.47;4179766;28;20091;-74
2022/12/29 02:46:44;;;;;;;26.85;18.13;;;;;;;6.27;67.75;95518.97;4179036;28;20080;-73
2022/12/29 02:49:04;;;;;;;26.67;17.42;;;;;;;6.25;67.87;95516.47;4166567;28;20059;-74
2022/12/29 02:51:33;;;;;;;27.83;18.70;;;;;;;6.32;68.32;95515.09;4161905;28;20175;-72
2022/12/29 02:55:57;;;;;;;27.33;17.70;;;;;;;6.46;67.54;95511.47;4167193;28;20475;-75
2022/12/29 02:58:17;;;;;;;24.92;17.35;;;;;;;6.47;67.26;95512.28;4174119;28;20049;-75
2022/12/29 03:00:19;;;;;;;28.30;17.92;;;;;;;6.48;67.51;95498.34;4175753;28;20080;-74
2022/12/29 03:02:45;;;;;;;31.10;18.50;;;;;;;6.56;67.36;95502.03;4187049;28;20473;-73
2022/12/29 03:05:07;;;;;;;30.52;19.55;;;;;;;6.62;67.25;95497.28;4161821;28;20104;-74
2022/12/29 03:07:09;;;;;;;36.47;21.48;;;;;;;6.65;67.05;95502.28;4170426;28;20069;-74
2022/12/29 03:09:25;;;;;;;37.92;21.48;;;;;;;6.66;67.39;95498.72;4161750;28;20497;-73
2022/12/29 03:16:45;;;;;;;37.17;21.88;;;;;;;6.55;67.62;95495.16;4173861;28;20439;-74
2022/12/29 03:19:26;;;;;;;33.90;23.70;;;;;;;6.33;68.32;95495.09;4154529;28;20050;-75
2022/12/29 03:23:57;;;;;;;33.40;22.27;;;;;;;6.36;68.26;95484.44;4179266;28;20140;-75
2022/12/29 03:26:01;;;;;;;32.47;21.30;;;;;;;6.35;68.07;95488.00;4161770;28;20504;-73
2022/12/29 03:28:07;;;;;;;39.80;23.25;;;;;;;6.38;68.46;95485.16;4167877;28;20045;-74
2022/12/29 03:30:09;;;;;;;33.63;22.02;;;;;;;6.44;67.98;95491.69;4161955;28;20231;-73
2022/12/29 03:32:12;;;;;;;33.13;22.13;;;;;;;6.48;68.10;95490.53;4142526;28;20054;-75
2022/12/29 03:34:15;;;;;;;34.85;22.00;;;;;;;6.49;67.96;95490.41;4162004;28;20053;-73
2022/12/29 03:36:52;;;;;;;36.03;23.23;;;;;;;6.53;67.89;95504.84;4162363;28;20062;-74
2022/12/29 03:39:02;;;;;;;34.47;20.73;;;;;;;6.54;67.85;95503.09;4155270;28;20059;-73
2022/12/29 03:41:07;;;;;;;36.90;21.40;;;;;;;6.57;67.62;95492.44;4179693;28;20060;-74
2022/12/29 03:43:09;;;;;;;32.20;21.52;;;;;;;6.54;67.66;95490.91;4178958;28;20112;-74
2022/12/29 03:45:11;;;;;;;35.42;21.65;;;;;;;6.56;67.34;95489.00;4161622;28;20053;-74
2022/12/29 03:47:14;;;;;;;36.88;22.67;;;;;;;6.53;67.87;95497.03;4177969;28;20061;-74
2022/12/29 03:49:16;;;;;;;33.20;23.17;;;;;;;6.55;67.34;95500.34;4160796;28;20671;-73
2022/12/29 03:51:18;;;;;;;38.25;24.23;;;;;;;6.14;68.65;95496.44;4177936;28;20079;-72
2022/12/29 03:53:20;;;;;;;38.00;23.77;;;;;;;5.87;69.70;95501.00;4179183;28;20061;-75
2022/12/29 03:55:22;;;;;;;38.90;23.83;;;;;;;5.66;70.77;95511.19;4178450;28;20513;-75
2022/12/29 03:57:24;;;;;;;41.55;27.05;;;;;;;5.43;71.49;95505.03;4179114;28;20091;-75
2022/12/29 03:59:26;;;;;;;40.33;26.00;;;;;;;5.13;73.18;95519.19;4178121;28;20056;-77
2022/12/29 04:01:27;;;;;;;42.10;26.27;;;;;;;5.01;73.28;95514.84;4178995;28;20443;-74
2022/12/29 04:03:29;;;;;;;38.40;24.60;;;;;;;4.94;74.22;95524.81;4177679;28;20446;-74
2022/12/29 04:05:31;;;;;;;43.95;26.90;;;;;;;4.79;74.61;95521.50;4174980;28;20129;-74
2022/12/29 04:07:33;;;;;;;40.50;26.48;;;;;;;4.89;74.52;95522.53;4163046;28;20159;-74
2022/12/29 04:09:35;;;;;;;39.00;24.83;;;;;;;5.02;74.20;95521.72;4148405;28;20053;-73
2022/12/29 04:11:37;;;;;;;39.25;25.70;;;;;;;5.23;74.07;95519.41;4172056;28;20492;-74
2022/12/29 04:13:40;;;;;;;42.25;25.80;;;;;;;5.41;72.65;95520.72;4172809;28;20053;-76
2022/12/29 04:15:43;;;;;;;41.50;26.35;;;;;;;5.59;72.45;95515.16;4178466;28;20156;-71
2022/12/29 04:17:45;;;;;;;41.28;27.67;;;;;;;5.69;71.57;95519.59;4177837;28;20132;-76
2022/12/29 04:19:47;;;;;;;39.55;26.65;;;;;;;5.67;70.76;95516.28;4178614;28;20059;-74
2022/12/29 04:21:49;;;;;;;32.97;22.58;;;;;;;5.52;71.16;95517.34;4178346;28;20373;-75
2022/12/29 04:23:50;;;;;;;36.47;23.30;;;;;;;5.47;70.98;95511.66;4160604;28;20057;-76
2022/12/29 04:25:52;;;;;;;28.27;18.75;;;;;;;5.47;71.39;95511.66;4179060;28;20114;-74
2022/12/29 04:27:54;;;;;;;24.13;17.48;;;;;;;5.52;70.62;95517.34;4169718;28;20049;-75
2022/12/29 04:29:56;;;;;;;27.75;17.08;;;;;;;5.56;70.64;95515.38;4174058;28;20123;-74
2022/12/29 04:31:57;;;;;;;25.50;16.75;;;;;;;5.62;69.92;95515.78;4177781;28;20053;-74
2022/12/29 04:33:59;;;;;;;26.77;17.30;;;;;;;5.71;69.62;95525.50;4177885;28;20045;-75
2022/12/29 04:36:01;;;;;;;26.48;17.83;;;;;;;5.73;68.98;95528.84;4177991;28;20113;-74
2022/12/29 04:38:03;;;;;;;23.88;16.50;;;;;;;5.74;69.15;95525.31;4177491;28;20143;-76
2022/12/29 04:40:06;;;;;;;29.70;16.63;;;;;;;5.76;68.88;95532.97;4177109;28;20061;-73
2022/12/29 04:42:08;;;;;;;24.70;16.80;;;;;;;5.80;68.92;95529.22;4171822;28;20485;-74
2022/12/29 04:44:09;;;;;;;26.83;17.35;;;;;;;5.84;68.88;95535.03;4161907;28;20472;-74
2022/12/29 04:46:11;;;;;;;27.67;17.60;;;;;;;5.87;68.67;95534.81;4173782;28;20068;-75
2022/12/29 04:48:13;;;;;;;24.13;16.98;;;;;;;5.90;68.76;95534.63;4161330;28;20100;-75
2022/12/29 04:50:15;;;;;;;25.55;16.30;;;;;;;5.90;68.37;95542.41;4162193;28;20111;-75
2022/12/29 04:52:18;;;;;;;26.00;17.17;;;;;;;5.84;68.46;95540.25;4163066;28;20103;-73
2022/12/29 04:54:20;;;;;;;26.48;17.92;;;;;;;5.87;68.33;95545.22;4184030;28;20048;-74
2022/12/29 04:56:22;;;;;;;27.15;18.00;;;;;;;5.90;68.07;95551.03;4181367;28;20130;-75
2022/12/29 04:58:23;;;;;;;25.85;17.67;;;;;;;5.91;68.20;95552.69;4177653;28;20045;-74
2022/12/29 05:00:25;;;;;;;25.17;16.65;;;;;;;5.85;68.29;95547.94;4177678;28;20110;-75
2022/12/29 05:02:27;;;;;;;25.67;17.33;;;;;;;5.92;68.22;95548.34;4178543;28;20052;-76
2022/12/29 05:04:29;;;;;;;25.67;17.10;;;;;;;5.99;68.34;95557.38;4185376;28;20342;-74
2022/12/29 05:06:30;;;;;;;25.58;17.00;;;;;;;6.00;67.60;95546.06;4178191;28;20488;-76
2022/12/29 05:08:32;;;;;;;27.10;17.60;;;;;;;6.02;68.24;95545.94;4170538;28;20159;-76
2022/12/29 05:10:34;;;;;;;26.25;17.75;;;;;;;6.05;67.88;95549.16;4177835;28;20049;-74
2022/12/29 05:12:36;;;;;;;29.95;17.83;;;;;;;6.09;68.20;95549.75;4175768;28;20524;-75
2022/12/29 05:14:38;;;;;;;29.48;17.85;;;;;;;6.16;67.71;95550.97;4161585;28;20555;-75
2022/12/29 05:16:40;;;;;;;26.77;17.42;;;;;;;6.20;67.26;95554.19;4170303;28;20424;-75
2022/12/29 05:18:41;;;;;;;26.20;17.38;;;;;;;6.28;67.83;95557.03;4177784;28;20494;-74
2022/12/29 05:20:44;;;;;;;31.92;18.45;;;;;;;6.29;67.52;95556.13;4178191;28;20049;-75
2022/12/29 05:22:45;;;;;;;28.65;19.02;;;;;;;6.27;66.98;95558.00;4177997;28;20505;-76
2022/12/29 05:24:47;;;;;;;28.63;17.85;;;;;;;6.22;67.55;95554.91;4177987;28;20064;-76
2022/12/29 05:26:49;;;;;;;30.35;19.23;;;;;;;6.27;67.68;95553.63;4178085;28;20053;-73
2022/12/29 05:28:50;;;;;;;29.02;18.10;;;;;;;6.22;67.42;95553.13;4176287;28;20045;-75
2022/12/29 05:30:53;;;;;;;30.77;18.67;;;;;;;6.26;67.62;95549.38;4177642;28;20053;-76
2022/12/29 05:32:54;;;;;;;33.33;20.25;;;;;;;6.26;67.50;95543.31;4159840;28;20058;-76
2022/12/29 05:34:56;;;;;;;30.52;20.75;;;;;;;6.27;67.48;95538.00;4160008;28;20098;-75
2022/12/29 05:36:58;;;;;;;34.42;21.55;;;;;;;6.27;67.89;95539.78;4174459;28;20057;-74
2022/12/29 05:38:59;;;;;;;35.58;21.52;;;;;;;6.26;67.77;95545.91;4177782;28;20041;-76
2022/12/29 05:41:01;;;;;;;34.95;23.15;;;;;;;6.10;68.24;95554.00;4178246;28;20377;-75
2022/12/29 05:43:03;;;;;;;38.08;25.13;;;;;;;5.79;69.04;95563.16;4177757;28;20144;-76
2022/12/29 05:45:06;;;;;;;38.05;24.38;;;;;;;5.64;70.64;95559.88;4175690;28;20095;-75
2022/12/29 05:47:08;;;;;;;39.80;25.17;;;;;;;5.53;70.49;95556.25;4176856;28;20128;-75
2022/12/29 05:49:10;;;;;;;44.28;26.45;;;;;;;5.29;71.23;95561.38;4176720;28;20088;-75
2022/12/29 05:54:10;;;;;;;38.83;25.27;;;;;;;5.22;72.71;95560.13;4172781;28;20075;-74
2022/12/29 05:56:12;;;;;;;39.53;26.02;;;;;;;5.39;71.83;95566.75;4177051;28;20104;-76
2022/12/29 05:58:14;;;;;;;40.00;26.58;;;;;;;5.52;71.41;95567.56;4177351;28;20059;-76
2022/12/29 06:00:17;;;;;;;39.88;26.08;;;;;;;5.62;70.87;95566.94;4169651;28;20119;-76
2022/12/29 06:02:19;;;;;;;44.35;27.88;;;;;;;5.70;70.36;95565.47;4172940;28;20123;-75
2022/12/29 06:04:21;;;;;;;38.05;26.33;;;;;;;5.73;70.62;95554.84;4167883;28;20054;-75
2022/12/29 06:06:23;;;;;;;37.03;25.70;;;;;;;5.86;70.29;95562.59;4176610;28;20080;-76
2022/12/29 06:08:25;;;;;;;47.20;25.98;;;;;;;5.92;70.01;95558.75;4163376;28;20457;-75
2022/12/29 06:10:27;;;;;;;38.83;25.95;;;;;;;6.01;69.72;95570.28;4171271;28;20457;-73
2022/12/29 06:12:28;;;;;;;38.05;25.45;;;;;;;6.02;69.44;95559.75;4163776;28;20685;-73
2022/12/29 06:14:30;;;;;;;39.47;25.08;;;;;;;5.98;69.72;95573.94;4172520;28;20353;-74
2022/12/29 06:16:32;;;;;;;37.83;24.27;;;;;;;5.98;69.64;95576.53;4160625;28;20115;-76
2022/12/29 06:18:34;;;;;;;36.50;23.85;;;;;;;6.04;69.39;95576.09;4171900;28;20403;-74
2022/12/29 06:20:35;;;;;;;35.78;24.23;;;;;;;6.10;68.79;95570.44;4163978;28;20061;-75
2022/12/29 06:22:37;;;;;;;38.22;23.95;;;;;;;6.17;69.18;95573.44;4177324;28;20075;-74
2022/12/29 06:24:39;;;;;;;33.75;22.58;;;;;;;6.23;68.98;95569.56;4162527;28;20140;-75
2022/12/29 06:26:41;;;;;;;34.17;22.75;;;;;;;6.26;68.99;95571.94;4169330;28;20057;-75
2022/12/29 06:28:43;;;;;;;31.75;23.10;;;;;;;6.32;68.55;95576.69;4161213;28;20473;-74
2022/12/29 06:30:45;;;;;;;38.53;26.17;;;;;;;6.33;68.67;95573.16;4175629;28;20107;-74
2022/12/29 06:32:47;;;;;;;41.05;27.02;;;;;;;6.28;68.72;95570.91;4164718;28;20049;-76
2022/12/29 06:34:49;;;;;;;40.67;27.00;;;;;;;6.32;68.47;95572.34;4159891;28;20410;-74
2022/12/29 06:36:51;;;;;;;44.50;27.88;;;;;;;6.40;68.46;95569.16;4165157;28;20056;-76
2022/12/29 06:38:53;;;;;;;40.40;25.25;;;;;;;6.63;68.43;95583.09;4169758;28;20289;-74
2022/12/29 06:40:54;;;;;;;37.28;24.27;;;;;;;6.99;67.32;95583.94;4180938;28;20534;-75
2022/12/29 06:42:56;;;;;;;32.78;24.23;;;;;;;7.06;66.27;95577.28;4179743;28;20119;-75
2022/12/29 06:45:00;;;;;;;33.17;23.73;;;;;;;6.95;66.11;95575.50;4179668;28;20061;-73
2022/12/29 06:47:02;;;;;;;42.75;25.55;;;;;;;6.90;66.50;95582.81;4173206;28;20081;-73
2022/12/29 06:49:04;;;;;;;36.13;24.02;;;;;;;6.86;66.43;95576.19;4174175;28;20461;-74
2022/12/29 06:51:06;;;;;;;34.13;24.58;;;;;;;6.79;66.65;95582.78;4179288;28;20053;-74
2022/12/29 06:53:07;;;;;;;35.35;23.48;;;;;;;6.77;67.04;95584.69;4164701;28;20045;-75
2022/12/29 06:55:09;;;;;;;36.00;24.13;;;;;;;6.70;67.83;95583.47;4171442;28;20060;-77
2022/12/29 06:57:11;;;;;;;39.70;25.63;;;;;;;6.66;67.59;95585.47;4169683;28;20416;-76
2022/12/29 06:59:12;;;;;;;36.35;24.90;;;;;;;6.57;67.59;95584.38;4178928;28;20374;-76
2022/12/29 07:01:14;;;;;;;39.00;24.83;;;;;;;6.58;67.52;95585.19;4175504;28;20484;-75
2022/12/29 07:03:17;;;;;;;41.95;25.45;;;;;;;6.69;67.73;95589.63;4175540;28;20563;-75
2022/12/29 07:05:18;;;;;;;35.25;24.55;;;;;;;6.64;67.46;95582.16;4156388;28;20053;-79
2022/12/29 07:07:20;;;;;;;40.95;26.85;;;;;;;6.69;67.55;95585.25;4168189;28;20141;-75
2022/12/29 07:09:22;;;;;;;40.17;27.92;;;;;;;6.22;68.06;95592.16;4168492;28;20061;-77
2022/12/29 07:11:24;;;;;;;41.80;26.42;;;;;;;6.06;68.56;95587.22;4166635;28;20057;-76
2022/12/29 07:13:26;;;;;;;46.47;27.55;;;;;;;6.01;68.47;95589.31;4171519;28;20488;-76
2022/12/29 07:15:27;;;;;;;46.40;28.42;;;;;;;5.96;68.90;95591.44;4161158;28;20427;-76
2022/12/29 07:17:29;;;;;;;41.30;28.15;;;;;;;5.80;69.57;95583.84;4168371;28;20053;-77
2022/12/29 07:19:32;;;;;;;45.13;28.55;;;;;;;5.82;69.53;95594.13;4165312;28;20397;-76
2022/12/29 07:21:34;;;;;;;49.08;28.65;;;;;;;5.71;70.15;95589.69;4160492;28;20497;-75
2022/12/29 07:23:35;;;;;;;45.00;31.20;;;;;;;5.74;70.55;95587.72;4168913;28;20440;-74
2022/12/29 07:25:37;;;;;;;46.30;29.75;;;;;;;5.93;70.11;95583.78;4161193;28;20049;-75
2022/12/29 07:27:39;;;;;;;44.30;28.85;;;;;;;6.16;69.11;95577.00;4179509;28;20107;-75
2022/12/29 07:29:41;;;;;;;43.72;29.02;;;;;;;6.34;68.08;95583.44;4161485;28;20103;-77
2022/12/29 07:31:43;;;;;;;41.08;25.05;;;;;;;6.19;68.03;95586.34;4168578;28;20393;-76
2022/12/29 07:33:45;;;;;;;43.95;26.33;;;;;;;5.88;68.55;95589.31;4177771;28;20057;-77
2022/12/29 07:35:47;;;;;;;39.15;26.75;;;;;;;5.60;69.89;95595.63;4171004;28;20053;-75
2022/12/29 07:37:49;;;;;;;44.28;28.58;;;;;;;5.79;70.97;95594.38;4179657;28;20459;-75
2022/12/29 07:39:50;;;;;;;39.25;25.55;;;;;;;5.53;70.23;95584.84;4179393;28;20053;-75
2022/12/29 07:41:52;;;;;;;39.45;27.15;;;;;;;5.51;71.00;95591.09;4167940;28;20056;-75
2022/12/29 07:43:57;;;;;;;42.60;25.63;;;;;;;5.31;71.24;95589.84;4179072;28;20056;-77
2022/12/29 07:45:59;;;;;;;42.75;26.75;;;;;;;5.48;71.52;95586.91;4169602;28;20053;-75
2022/12/29 07:48:02;;;;;;;39.17;25.80;;;;;;;5.54;71.72;95594.28;4164845;28;20053;-77
2022/12/29 07:50:04;;;;;;;43.22;26.73;;;;;;;5.81;70.58;95582.06;4164062;28;20104;-77
2022/12/29 07:52:06;;;;;;;42.67;26.83;;;;;;;6.02;69.26;95590.13;4162940;28;20076;-76
2022/12/29 07:54:08;;;;;;;45.05;26.27;;;;;;;6.01;69.28;95596.31;4163577;28;20059;-76
2022/12/29 07:56:10;;;;;;;37.67;25.33;;;;;;;6.15;68.75;95586.56;4177639;28;20052;-74
2022/12/29 07:58:12;;;;;;;36.78;25.17;;;;;;;6.13;68.48;95593.66;4180046;28;20140;-74
2022/12/29 08:00:15;;;;;;;39.47;25.63;;;;;;;6.25;68.77;95598.91;4185782;28;20045;-76
2022/12/29 08:02:16;;;;;;;41.25;26.13;;;;;;;6.27;68.38;95599.63;4173826;28;20502;-76
2022/12/29 08:04:18;;;;;;;39.75;26.20;;;;;;;6.44;68.60;95599.25;4189240;28;20139;-76
2022/12/29 08:06:20;;;;;;;39.70;26.13;;;;;;;6.51;68.38;95602.22;4160782;28;20061;-76
2022/12/29 08:08:22;;;;;;;41.53;27.30;;;;;;;6.31;68.32;95612.31;4178230;28;20053;-75
2022/12/29 08:10:24;;;;;;;41.25;27.50;;;;;;;5.87;69.56;95613.69;4170931;28;20061;-75
2022/12/29 08:12:26;;;;;;;48.40;27.65;;;;;;;5.41;71.65;95616.03;4157976;28;20211;-77
2022/12/29 08:14:27;;;;;;;42.17;26.95;;;;;;;5.73;71.82;95606.84;4178677;28;20064;-75
2022/12/29 08:16:29;;;;;;;41.38;30.40;;;;;;;5.82;70.58;95604.53;4178072;28;20053;-75
2022/12/29 08:18:31;;;;;;;43.80;29.83;;;;;;;6.00;70.29;95611.09;4159801;28;20068;-75
2022/12/29 08:20:33;;;;;;;43.03;28.42;;;;;;;6.04;69.24;95604.69;4177148;28;20144;-78
2022/12/29 08:22:35;;;;;;;43.88;28.30;;;;;;;6.21;69.69;95603.50;4176796;28;20510;-77
2022/12/29 08:24:37;;;;;;;52.45;31.85;;;;;;;6.53;68.78;95595.13;4169979;28;20152;-75
2022/12/29 08:26:39;;;;;;;41.47;29.05;;;;;;;6.88;67.72;95592.53;4178066;28;20053;-76
2022/12/29 08:28:41;;;;;;;44.65;29.23;;;;;;;7.15;65.56;95599.22;4178065;28;20361;-77
2022/12/29 08:30:42;;;;;;;45.97;30.75;;;;;;;7.22;65.76;95595.19;4167748;28;20045;-76
2022/12/29 08:32:44;;;;;;;44.85;29.63;;;;;;;7.15;66.10;95596.63;4159575;28;20064;-76
2022/12/29 08:34:46;;;;;;;42.85;29.83;;;;;;;7.01;66.28;95594.22;4169029;28;20470;-77
2022/12/29 08:36:48;;;;;;;49.30;31.42;;;;;;;6.68;67.06;95596.59;4167215;28;20064;-76
2022/12/29 08:38:49;;;;;;;45.42;30.13;;;;;;;6.48;68.22;95603.28;4149484;28;20053;-76
2022/12/29 08:40:51;;;;;;;52.17;32.90;;;;;;;6.47;68.14;95596.41;4178175;28;20049;-76
2022/12/29 08:42:53;;;;;;;43.90;30.50;;;;;;;6.11;69.50;95602.50;4168971;28;20053;-75
2022/12/29 08:44:55;;;;;;;45.03;32.05;;;;;;;5.72;70.63;95609.53;4168989;28;20151;-77
2022/12/29 08:46:56;;;;;;;49.78;31.95;;;;;;;5.93;70.11;95612.41;4165781;28;20053;-76
2022/12/29 08:48:58;;;;;;;48.42;31.50;;;;;;;6.35;69.94;95599.91;4164781;28;20144;-76
2022/12/29 08:51:00;;;;;;;46.47;33.45;;;;;;;6.56;68.28;95600.97;4159231;28;20504;-76
2022/12/29 08:53:02;;;;;;;46.70;31.15;;;;;;;6.51;68.34;95597.00;4158586;28;20511;-78
2022/12/29 08:55:04;;;;;;;49.42;32.08;;;;;;;6.76;67.92;95593.44;4165163;28;20049;-76
2022/12/29 08:57:05;;;;;;;40.05;28.52;;;;;;;7.14;66.94;95580.16;4171983;28;20133;-76
2022/12/29 08:59:07;;;;;;;41.63;27.95;;;;;;;7.10;66.07;95591.75;4168007;28;20057;-74
2022/12/29 09:01:09;;;;;;;44.00;28.20;;;;;;;7.40;66.30;95582.56;4150467;28;20425;-76
2022/12/29 09:03:11;;;;;;;41.22;25.75;;;;;;;7.81;64.92;95581.13;4176895;28;20085;-73
2022/12/29 09:05:13;;;;;;;42.63;26.83;;;;;;;8.14;63.42;95585.44;4174588;28;20053;-75
2022/12/29 09:07:15;;;;;;;38.88;28.15;;;;;;;8.29;62.92;95579.94;4174285;28;20053;-74
2022/12/29 09:09:18;;;;;;;40.38;26.75;;;;;;;8.43;62.21;95573.63;4163757;28;20489;-75
2022/12/29 09:11:22;;;;;;;40.08;26.63;;;;;;;8.68;61.35;95575.09;4161439;28;20061;-74
2022/12/29 09:13:24;;;;;;;38.13;27.95;;;;;;;8.80;59.78;95568.84;4161842;28;20560;-75
2022/12/29 09:15:26;;;;;;;39.92;27.58;;;;;;;8.51;61.37;95566.81;4161465;28;20144;-74
2022/12/29 09:17:44;;;;;;;41.85;28.90;;;;;;;8.67;61.45;95570.78;4174059;28;20413;-76
2022/12/29 09:19:45;;;;;;;38.72;27.10;;;;;;;8.82;61.57;95564.34;4161682;28;20054;-76
2022/12/29 09:21:47;;;;;;;49.10;30.67;;;;;;;9.13;60.58;95556.53;4162598;28;20062;-76
2022/12/29 09:23:49;;;;;;;37.00;24.77;;;;;;;9.45;58.90;95566.06;4175030;28;20060;-75
2022/12/29 09:25:51;;;;;;;37.10;26.02;;;;;;;9.55;58.95;95561.69;4177417;28;20056;-75
2022/12/29 09:27:53;;;;;;;38.83;26.50;;;;;;;9.69;58.21;95563.94;4170553;28;20095;-78
2022/12/29 09:29:55;;;;;;;38.35;25.35;;;;;;;9.67;57.99;95565.88;4163207;28;20092;-76
2022/12/29 09:31:57;;;;;;;37.33;24.65;;;;;;;9.19;59.20;95559.47;4176579;28;20114;-77
2022/12/29 09:33:59;;;;;;;38.28;25.83;;;;;;;8.97;60.36;95552.59;4173647;28;20057;-75
2022/12/29 09:36:01;;;;;;;39.38;25.33;;;;;;;8.74;61.01;95559.72;4153209;28;20496;-76
2022/12/29 09:38:02;;;;;;;34.25;25.42;;;;;;;8.74;60.35;95551.06;4164336;28;20111;-77
2022/12/29 09:40:05;;;;;;;40.03;26.80;;;;;;;9.08;61.00;95549.09;4162887;28;20377;-76
2022/12/29 09:42:23;;;;;;;56.03;33.80;;;;;;;9.50;60.59;95550.78;4165086;28;20053;-74
2022/12/29 09:44:56;;;;;;;32.20;21.48;;;;;;;9.85;58.70;95539.88;4168117;28;20057;-76
2022/12/29 09:46:58;;;;;;;41.47;25.40;;;;;;;10.04;57.67;95541.72;4163387;28;20077;-75
2022/12/29 09:49:32;;;;;;;36.58;22.50;;;;;;;10.19;57.09;95529.88;4171326;28;20053;-74
2022/12/29 09:51:35;;;;;;;30.77;21.00;;;;;;;10.22;57.19;95532.25;4176606;28;20068;-75
2022/12/29 09:53:40;;;;;;;33.63;22.30;;;;;;;10.29;56.69;95531.72;4177006;28;20057;-74
2022/12/29 09:55:50;;;;;;;34.40;23.67;;;;;;;9.90;57.63;95531.66;4177580;28;20060;-76
2022/12/29 09:57:55;;;;;;;32.75;22.15;;;;;;;10.09;57.79;95529.06;4166829;28;20052;-75
2022/12/29 10:00:02;;;;;;;34.13;22.55;;;;;;;10.24;57.29;95526.88;4157189;28;20050;-76
2022/12/29 10:02:14;;;;;;;44.30;27.35;;;;;;;10.56;56.96;95525.81;4153198;28;20497;-75
2022/12/29 10:04:16;;;;;;;37.05;24.05;;;;;;;10.68;56.08;95519.47;4180872;28;20068;-74
2022/12/29 10:06:39;;;;;;;38.13;24.27;;;;;;;10.49;56.66;95517.66;4155856;28;20454;-75
2022/12/29 10:09:36;;;;;;;35.65;23.45;;;;;;;10.05;57.02;95511.97;4160170;28;20091;-76
2022/12/29 10:12:13;;;;;;;33.17;22.30;;;;;;;9.66;58.99;95518.91;4169692;28;20118;-76
2022/12/29 10:14:27;;;;;;;34.42;23.42;;;;;;;9.38;59.31;95516.06;4166874;28;20304;-74
2022/12/29 10:16:36;;;;;;;34.00;23.90;;;;;;;9.62;59.67;95511.31;4179850;28;20064;-76